San Dimas, California
Current Conditions -  °F | °C
As of 10:53 AM on Sunday 23 Nov 2014 (Local Time) from KONT Reporting Station
Sand / Dust Storm Sand / Dust Storm  
Wind Chill: 72°   Ceiling: 25000
Heat Index: 72°   Visibility: 9mi
Dew Point: 13°   Wind: 26mph
Humidity: 10%   Direction: 60°ENE
Pressure: 30.1"   Gusts: 43mph
Location:  34.11°N, 117.8°W
Report Text: KONT 231853Z 06023G37KT 9SM VCBLDU BKN250 22/M11 A3010 RMK AO2 PK WND 06041/1828 SLP185 T02221106
Loading
Personal Weather Stations






























Interactive Weather Map New forecast layout! Learn more

10-Day Weather Forecast

Advertisements
Track Severe Weather on mobile